createdAt,value
2023-05-02T00:00:09.783Z,55.56
2023-05-02T00:02:37.737Z,55.50
2023-05-02T00:05:06.661Z,55.72
2023-05-02T00:07:35.428Z,56.09
2023-05-02T00:10:03.473Z,56.08
2023-05-02T00:12:32.631Z,55.91
2023-05-02T00:15:01.372Z,56.43
2023-05-02T00:17:29.228Z,56.66
2023-05-02T00:19:57.324Z,56.39
2023-05-02T00:22:25.770Z,56.71
2023-05-02T00:24:57.573Z,56.94
2023-05-02T00:27:25.973Z,56.88
2023-05-02T00:29:55.890Z,57.19
2023-05-02T00:32:23.734Z,56.85
2023-05-02T00:34:52.430Z,57.24
2023-05-02T00:37:20.529Z,57.73
2023-05-02T00:39:48.308Z,57.71
2023-05-02T00:42:16.719Z,57.73
2023-05-02T00:44:44.497Z,57.55
2023-05-02T00:47:13.797Z,57.89
2023-05-02T00:49:41.780Z,57.92
2023-05-02T00:52:09.653Z,58.04
2023-05-02T00:54:38.917Z,58.15
2023-05-02T00:57:07.278Z,58.27
2023-05-02T00:59:36.286Z,58.43
2023-05-02T01:02:24.646Z,58.09
2023-05-02T01:05:01.726Z,58.84
2023-05-02T01:10:47.511Z,59.97
2023-05-02T01:13:22.515Z,59.72
2023-05-02T01:15:52.235Z,59.49
2023-05-02T01:18:25.450Z,59.56
2023-05-02T01:21:00.144Z,59.30
2023-05-02T01:23:37.126Z,60.06
2023-05-02T01:26:16.908Z,59.22
2023-05-02T01:28:58.921Z,59.75
2023-05-02T01:31:28.324Z,60.04
2023-05-02T01:33:57.741Z,59.51
2023-05-02T01:36:28.522Z,59.69
2023-05-02T01:38:57.885Z,59.80
2023-05-02T01:41:29.011Z,59.99
2023-05-02T01:43:59.872Z,60.24
2023-05-02T01:46:29.562Z,60.34
2023-05-02T01:48:59.051Z,59.75
2023-05-02T01:51:31.785Z,59.86
2023-05-02T01:54:02.445Z,59.78
2023-05-02T01:56:33.503Z,60.14
2023-05-02T01:59:06.425Z,60.09
2023-05-02T02:01:36.837Z,60.03
2023-05-02T02:04:07.154Z,60.26
2023-05-02T02:06:35.100Z,60.05
2023-05-02T02:09:04.115Z,59.56
2023-05-02T02:11:36.682Z,59.78
2023-05-02T02:14:14.225Z,59.69
2023-05-02T02:16:43.462Z,59.82
2023-05-02T02:19:14.993Z,59.72
2023-05-02T02:21:44.426Z,59.31
2023-05-02T02:24:13.724Z,59.25
2023-05-02T02:26:42.584Z,59.78
2023-05-02T02:29:11.771Z,59.61
2023-05-02T02:31:40.138Z,59.07
2023-05-02T02:34:08.893Z,59.31
2023-05-02T02:36:45.896Z,59.29
2023-05-02T02:39:27.198Z,59.60
2023-05-02T02:42:04.698Z,59.21
2023-05-02T02:44:45.458Z,59.49
2023-05-02T02:47:21.583Z,59.47
2023-05-02T02:49:53.032Z,59.42
2023-05-02T02:52:29.413Z,59.99
2023-05-02T02:55:02.094Z,59.83
2023-05-02T02:57:38.705Z,59.80
2023-05-02T03:00:13.343Z,60.02
2023-05-02T03:02:44.062Z,59.51
2023-05-02T03:05:12.482Z,60.36
2023-05-02T03:07:40.801Z,59.94
2023-05-02T03:10:09.771Z,60.29
2023-05-02T03:12:37.610Z,60.53
2023-05-02T03:15:26.840Z,60.25
2023-05-02T03:17:54.659Z,59.96
2023-05-02T03:20:22.444Z,60.39
2023-05-02T03:22:50.889Z,59.61
2023-05-02T03:25:18.678Z,59.93
2023-05-02T03:27:46.621Z,60.19
2023-05-02T03:30:16.475Z,60.32
2023-05-02T03:32:44.238Z,59.73
2023-05-02T03:35:12.062Z,59.78
2023-05-02T03:37:40.350Z,60.23
2023-05-02T03:40:09.396Z,59.95
2023-05-02T03:42:39.990Z,59.81
2023-05-02T03:45:09.352Z,59.89
2023-05-02T03:47:38.643Z,59.19
2023-05-02T03:50:07.503Z,59.69
2023-05-02T03:52:35.899Z,59.82
2023-05-02T03:55:04.071Z,59.54
2023-05-02T03:57:31.928Z,60.06
2023-05-02T04:00:01.234Z,59.69
2023-05-02T04:02:29.259Z,60.32
2023-05-02T04:04:58.467Z,59.69
2023-05-02T04:07:26.975Z,59.91
2023-05-02T04:09:54.765Z,60.79
2023-05-02T04:12:22.640Z,60.17
2023-05-02T04:14:51.017Z,60.36
2023-05-02T04:17:18.949Z,60.78
2023-05-02T04:19:46.750Z,61.17
2023-05-02T04:22:16.465Z,60.82
2023-05-02T04:24:44.225Z,60.49
2023-05-02T04:27:14.430Z,61.13
2023-05-02T04:29:43.589Z,61.41
2023-05-02T04:32:11.590Z,61.49
2023-05-02T04:34:39.367Z,61.64
2023-05-02T04:37:07.785Z,60.89
2023-05-02T04:39:36.958Z,61.17
2023-05-02T04:42:04.915Z,60.79
2023-05-02T04:44:33.212Z,60.52
2023-05-02T04:47:00.998Z,60.51
2023-05-02T04:49:29.099Z,61.10
2023-05-02T04:51:57.444Z,61.00
2023-05-02T04:54:25.206Z,61.16
2023-05-02T04:56:54.416Z,60.99
2023-05-02T04:59:22.739Z,60.57
2023-05-02T05:01:50.724Z,60.44
2023-05-02T05:04:18.580Z,60.82
2023-05-02T05:06:47.983Z,60.43
2023-05-02T05:09:15.862Z,60.86
2023-05-02T05:11:46.060Z,60.91
2023-05-02T05:14:15.717Z,60.85
2023-05-02T05:16:44.889Z,61.32
2023-05-02T05:19:12.668Z,61.15
2023-05-02T05:21:41.085Z,61.16
2023-05-02T05:24:09.010Z,61.32
2023-05-02T05:26:36.772Z,61.67
2023-05-02T05:29:05.110Z,61.62
2023-05-02T05:31:34.320Z,61.45
2023-05-02T05:34:03.114Z,62.04
2023-05-02T05:36:32.022Z,62.29
2023-05-02T05:38:59.800Z,61.99
2023-05-02T05:41:27.776Z,62.41
2023-05-02T05:43:56.745Z,62.03
2023-05-02T05:46:24.548Z,61.95
2023-05-02T05:48:53.757Z,62.11
2023-05-02T05:51:22.092Z,62.07
2023-05-02T05:53:49.881Z,62.29
2023-05-02T05:56:18.241Z,62.43
2023-05-02T05:58:46.519Z,61.91
2023-05-02T06:01:14.482Z,62.43
2023-05-02T06:03:42.310Z,62.29
2023-05-02T06:06:12.212Z,61.95
2023-05-02T06:08:40.263Z,61.74
2023-05-02T06:11:10.634Z,62.04
2023-05-02T06:13:39.117Z,62.23
2023-05-02T06:16:07.569Z,62.16
2023-05-02T06:18:35.508Z,62.00
2023-05-02T06:21:07.335Z,62.15
2023-05-02T06:23:36.902Z,61.98
2023-05-02T06:26:05.544Z,61.41
2023-05-02T06:28:34.192Z,61.52
2023-05-02T06:31:03.350Z,60.72
2023-05-02T06:33:32.272Z,60.31
2023-05-02T06:36:02.293Z,60.42
2023-05-02T06:38:30.429Z,61.41
2023-05-02T06:40:59.576Z,61.14
2023-05-02T06:43:27.959Z,60.62
2023-05-02T06:45:56.378Z,60.25
2023-05-02T06:48:24.333Z,60.67
2023-05-02T06:50:54.426Z,60.57
2023-05-02T06:53:22.360Z,60.13
2023-05-02T06:55:50.845Z,60.45
2023-05-02T06:58:20.296Z,60.85
2023-05-02T07:00:48.734Z,60.29
2023-05-02T07:03:16.670Z,60.88
2023-05-02T07:05:45.125Z,60.42
2023-05-02T07:08:12.885Z,60.14
2023-05-02T07:10:40.750Z,60.19
2023-05-02T07:13:08.999Z,59.80
2023-05-02T07:15:38.257Z,60.17
2023-05-02T07:18:06.354Z,60.02
2023-05-02T07:20:34.720Z,60.20
2023-05-02T07:23:02.495Z,60.25
2023-05-02T07:25:30.323Z,60.15
2023-05-02T07:27:58.576Z,58.91
2023-05-02T07:30:26.377Z,59.12
2023-05-02T07:32:55.560Z,58.25
2023-05-02T07:35:23.998Z,58.59
2023-05-02T07:37:51.886Z,58.13
2023-05-02T07:40:20.006Z,57.87
2023-05-02T07:42:48.291Z,56.62
2023-05-02T07:45:16.135Z,56.62
2023-05-02T07:47:43.995Z,56.85
2023-05-02T07:50:14.158Z,56.26
2023-05-02T07:52:42.027Z,55.84
2023-05-02T07:55:10.715Z,56.59
2023-05-02T07:57:39.056Z,56.17
2023-05-02T08:00:10.290Z,56.51
2023-05-02T08:02:38.266Z,55.56
2023-05-02T08:05:08.021Z,54.79
2023-05-02T08:07:37.569Z,54.79
2023-05-02T08:10:05.833Z,54.71
2023-05-02T08:12:34.711Z,53.82
2023-05-02T08:15:06.443Z,53.74
2023-05-02T08:17:34.776Z,53.23
2023-05-02T08:20:02.997Z,52.35
2023-05-02T08:22:31.425Z,51.52
2023-05-02T08:25:01.134Z,51.34
2023-05-02T08:27:29.105Z,51.59
2023-05-02T08:29:58.673Z,50.78
2023-05-02T08:32:30.353Z,50.84
2023-05-02T08:34:58.043Z,50.21
2023-05-02T08:37:25.853Z,49.62
2023-05-02T08:39:54.984Z,49.55
2023-05-02T08:42:25.087Z,49.34
2023-05-02T08:44:53.262Z,49.67
2023-05-02T08:47:22.645Z,49.60
2023-05-02T08:49:52.504Z,49.02
2023-05-02T08:52:22.248Z,49.33
2023-05-02T08:54:52.087Z,47.79
2023-05-02T08:57:19.981Z,48.28
2023-05-02T08:59:49.912Z,47.88
2023-05-02T09:02:29.613Z,49.29
2023-05-02T09:05:04.538Z,48.15
2023-05-02T09:07:32.997Z,48.16
2023-05-02T09:10:00.830Z,48.58
2023-05-02T09:12:28.979Z,48.78
2023-05-02T09:15:17.004Z,49.60
2023-05-02T09:17:48.907Z,48.11
2023-05-02T09:20:18.465Z,47.44
2023-05-02T09:22:51.334Z,47.58
2023-05-02T09:25:21.148Z,45.98
2023-05-02T09:27:54.257Z,46.35
2023-05-02T09:30:26.067Z,46.19
2023-05-02T09:32:55.875Z,46.92
2023-05-02T09:35:27.515Z,46.10
2023-05-02T09:37:55.878Z,46.01
2023-05-02T09:40:25.250Z,45.94
2023-05-02T09:42:54.426Z,46.59
2023-05-02T09:45:25.307Z,45.80
2023-05-02T09:47:54.262Z,45.55
2023-05-02T09:50:36.412Z,45.86
2023-05-02T09:53:06.196Z,45.50
2023-05-02T09:55:34.495Z,45.23
2023-05-02T09:58:03.445Z,45.54
2023-05-02T10:00:51.634Z,44.64
2023-05-02T10:03:21.705Z,45.43
2023-05-02T10:05:49.863Z,45.55
2023-05-02T10:08:20.209Z,44.53
2023-05-02T10:10:53.037Z,44.91
2023-05-02T10:13:22.648Z,44.16
2023-05-02T10:15:56.018Z,45.96
2023-05-02T10:18:29.439Z,46.55
2023-05-02T10:21:00.570Z,44.68
2023-05-02T10:23:30.555Z,44.14
2023-05-02T10:26:03.662Z,43.17
2023-05-02T10:28:31.652Z,43.38
2023-05-02T10:31:04.164Z,41.08
2023-05-02T10:33:35.350Z,41.96
2023-05-02T10:36:04.046Z,42.39
2023-05-02T10:38:32.512Z,41.94
2023-05-02T10:41:04.568Z,41.44
2023-05-02T10:43:35.492Z,42.20
2023-05-02T10:46:05.638Z,41.96
2023-05-02T10:48:33.489Z,41.83
2023-05-02T10:51:02.267Z,42.39
2023-05-02T10:53:32.856Z,41.60
2023-05-02T10:56:17.923Z,43.57
2023-05-02T10:58:49.482Z,42.91
2023-05-02T11:01:39.847Z,43.07
2023-05-02T11:04:10.269Z,42.49
2023-05-02T11:06:59.033Z,42.29
2023-05-02T11:09:36.358Z,42.04
2023-05-02T11:12:05.938Z,42.20
2023-05-02T11:14:49.076Z,42.57
2023-05-02T11:17:19.019Z,41.96
2023-05-02T11:20:27.647Z,41.61
2023-05-02T11:23:00.910Z,40.59
2023-05-02T11:25:37.733Z,41.09
2023-05-02T11:28:08.236Z,40.37
2023-05-02T11:30:49.138Z,41.38
2023-05-02T11:33:20.247Z,40.92
2023-05-02T11:35:51.629Z,40.49
2023-05-02T11:38:22.296Z,40.28
2023-05-02T11:40:59.089Z,40.38
2023-05-02T11:43:31.483Z,40.73
2023-05-02T11:46:01.081Z,40.29
2023-05-02T11:48:31.755Z,40.31
2023-05-02T11:51:04.098Z,40.01
2023-05-02T11:53:32.836Z,40.20
2023-05-02T11:56:01.721Z,40.07
2023-05-02T11:58:33.014Z,40.12
2023-05-02T12:01:13.075Z,39.71
2023-05-02T12:03:43.249Z,40.62
2023-05-02T12:06:12.869Z,40.53
2023-05-02T12:08:41.932Z,40.48
2023-05-02T12:11:11.053Z,40.16
2023-05-02T12:13:46.899Z,39.20
2023-05-02T12:16:15.707Z,39.48
2023-05-02T12:18:45.293Z,39.07
2023-05-02T12:21:13.378Z,38.63
2023-05-02T12:23:42.699Z,39.20
2023-05-02T12:26:21.296Z,39.66
2023-05-02T12:28:51.018Z,39.14
2023-05-02T12:31:19.370Z,39.32
2023-05-02T12:33:51.245Z,39.23
2023-05-02T12:36:19.742Z,39.37
2023-05-02T12:38:54.346Z,39.11
2023-05-02T12:41:33.070Z,39.36
2023-05-02T12:44:01.911Z,39.57
2023-05-02T12:46:30.032Z,39.43
2023-05-02T12:49:07.412Z,39.02
2023-05-02T12:51:36.556Z,39.06
2023-05-02T12:54:04.846Z,39.27
2023-05-02T12:56:40.302Z,38.08
2023-05-02T12:59:08.328Z,38.76
2023-05-02T13:01:36.532Z,38.28
2023-05-02T13:04:07.211Z,38.37
2023-05-02T13:06:38.215Z,38.63
2023-05-02T13:09:06.843Z,38.25
2023-05-02T13:11:34.656Z,38.61
2023-05-02T13:14:05.220Z,37.76
2023-05-02T13:16:34.320Z,38.38
2023-05-02T13:19:02.133Z,38.03
2023-05-02T13:21:31.621Z,38.27
2023-05-02T13:24:00.280Z,38.29
2023-05-02T13:26:28.430Z,38.01
2023-05-02T13:28:56.569Z,37.50
2023-05-02T13:31:24.703Z,37.84
2023-05-02T13:33:52.582Z,36.28
2023-05-02T13:36:20.395Z,35.28
2023-05-02T13:38:50.290Z,35.49
2023-05-02T13:41:19.067Z,36.48
2023-05-02T13:43:47.113Z,36.15
2023-05-02T13:46:16.045Z,36.55
2023-05-02T13:48:43.973Z,36.45
2023-05-02T13:51:12.023Z,36.17
2023-05-02T13:53:40.479Z,36.18
2023-05-02T13:56:09.763Z,35.91
2023-05-02T13:58:37.646Z,36.52
2023-05-02T14:01:05.965Z,35.90
2023-05-02T14:03:33.932Z,35.50
2023-05-02T14:06:01.897Z,35.78
2023-05-02T14:08:29.928Z,35.87
2023-05-02T14:10:57.941Z,36.21
2023-05-02T14:13:27.513Z,35.78
2023-05-02T14:15:55.638Z,36.10
2023-05-02T14:18:23.543Z,35.85
2023-05-02T14:20:51.410Z,35.53
2023-05-02T14:23:19.688Z,35.94
2023-05-02T14:25:48.786Z,35.86
2023-05-02T14:28:16.553Z,35.86
2023-05-02T14:30:46.188Z,35.19
2023-05-02T14:33:14.121Z,35.65
2023-05-02T14:35:42.186Z,35.55
2023-05-02T14:38:10.317Z,35.77
2023-05-02T14:40:38.113Z,35.49
2023-05-02T14:43:06.502Z,34.92
2023-05-02T14:45:34.722Z,35.09
2023-05-02T14:48:04.289Z,34.04
2023-05-02T14:50:31.918Z,34.78
2023-05-02T14:52:59.893Z,34.30
2023-05-02T14:55:27.893Z,34.57
2023-05-02T14:57:56.166Z,35.23
2023-05-02T15:00:25.228Z,35.23
2023-05-02T15:02:53.079Z,35.05
2023-05-02T15:05:22.769Z,35.08
2023-05-02T15:07:50.414Z,34.27
2023-05-02T15:10:18.168Z,35.16
2023-05-02T15:12:50.989Z,35.33
2023-05-02T15:15:24.816Z,34.81
2023-05-02T15:17:53.028Z,34.23
2023-05-02T15:20:22.587Z,34.75
2023-05-02T15:22:50.388Z,35.07
2023-05-02T15:25:18.574Z,35.67
2023-05-02T15:27:46.458Z,34.88
2023-05-02T15:30:16.559Z,35.03
2023-05-02T15:32:46.149Z,34.54
2023-05-02T15:35:14.207Z,34.62
2023-05-02T15:37:43.432Z,33.80
2023-05-02T15:40:12.667Z,34.29
2023-05-02T15:42:40.654Z,34.78
2023-05-02T15:45:09.713Z,34.53
2023-05-02T15:47:38.292Z,35.23
2023-05-02T15:50:07.757Z,35.03
2023-05-02T15:52:35.663Z,35.26
2023-05-02T15:55:06.150Z,34.96
2023-05-02T15:57:33.964Z,34.55
2023-05-02T16:00:01.988Z,35.02
2023-05-02T16:02:30.612Z,34.97
2023-05-02T16:04:58.405Z,34.74
2023-05-02T16:07:26.197Z,34.75
2023-05-02T16:09:54.446Z,35.04
2023-05-02T16:12:23.635Z,34.51
2023-05-02T16:14:51.434Z,34.62
2023-05-02T16:17:19.640Z,34.59
2023-05-02T16:19:47.437Z,34.88
2023-05-02T16:22:15.393Z,34.82
2023-05-02T16:24:43.765Z,34.73
2023-05-02T16:27:11.518Z,34.88
2023-05-02T16:29:40.723Z,35.04
2023-05-02T16:32:08.515Z,34.83
2023-05-02T16:34:37.162Z,34.80
2023-05-02T16:37:05.077Z,35.18
2023-05-02T16:39:34.435Z,34.58
2023-05-02T16:42:02.825Z,34.68
2023-05-02T16:44:31.412Z,34.73
2023-05-02T16:47:01.649Z,34.66
2023-05-02T16:49:30.022Z,34.73
2023-05-02T16:51:57.825Z,34.84
2023-05-02T16:54:25.661Z,34.73
2023-05-02T16:56:53.401Z,34.73
2023-05-02T16:59:21.185Z,34.38
2023-05-02T17:01:50.502Z,34.28
2023-05-02T17:04:19.655Z,34.83
2023-05-02T17:06:47.676Z,34.31
2023-05-02T17:09:16.258Z,34.45
2023-05-02T17:11:44.330Z,34.60
2023-05-02T17:14:12.461Z,34.69
2023-05-02T17:16:41.464Z,34.87
2023-05-02T17:19:09.268Z,34.62
2023-05-02T17:21:38.490Z,34.77
2023-05-02T17:24:07.905Z,34.23
2023-05-02T17:26:35.736Z,35.22
2023-05-02T17:29:03.859Z,35.84
2023-05-02T17:31:32.177Z,35.88
2023-05-02T17:33:59.972Z,36.16
2023-05-02T17:36:27.861Z,36.68
2023-05-02T17:38:57.519Z,36.63
2023-05-02T17:41:25.025Z,36.71
2023-05-02T17:43:52.991Z,37.03
2023-05-02T17:46:21.570Z,37.40
2023-05-02T17:48:49.349Z,37.41
2023-05-02T17:51:17.076Z,37.49
2023-05-02T17:53:45.066Z,38.01
2023-05-02T17:56:15.957Z,38.22
2023-05-02T17:58:43.675Z,38.10
2023-05-02T18:01:14.419Z,38.28
2023-05-02T18:03:42.621Z,38.25
2023-05-02T18:06:16.162Z,38.32
2023-05-02T18:08:44.424Z,38.59
2023-05-02T18:11:18.058Z,38.81
2023-05-02T18:13:46.714Z,38.80
2023-05-02T18:16:14.843Z,38.89
2023-05-02T18:18:43.186Z,39.16
2023-05-02T18:21:11.528Z,39.01
2023-05-02T18:23:40.160Z,39.21
2023-05-02T18:26:14.516Z,39.34
2023-05-02T18:28:45.156Z,39.20
2023-05-02T18:31:19.684Z,39.22
2023-05-02T18:33:47.698Z,39.35
2023-05-02T18:36:19.143Z,39.62
2023-05-02T18:38:47.682Z,39.58
2023-05-02T18:41:17.455Z,39.64
2023-05-02T18:43:46.577Z,39.55
2023-05-02T18:46:14.971Z,39.52
2023-05-02T18:48:43.452Z,39.70
2023-05-02T18:51:11.443Z,39.80
2023-05-02T18:53:39.854Z,40.06
2023-05-02T18:56:13.309Z,39.78
2023-05-02T18:58:41.621Z,40.09
2023-05-02T19:01:14.880Z,40.14
2023-05-02T19:03:44.008Z,40.08
2023-05-02T19:06:12.215Z,40.48
2023-05-02T19:08:40.937Z,40.63
2023-05-02T19:11:09.593Z,40.54
2023-05-02T19:13:37.449Z,40.47
2023-05-02T19:16:05.455Z,40.74
2023-05-02T19:18:35.150Z,40.75
2023-05-02T19:21:10.290Z,40.68
2023-05-02T19:23:38.698Z,40.33
2023-05-02T19:26:11.739Z,41.25
2023-05-02T19:28:40.001Z,41.06
2023-05-02T19:31:11.789Z,41.21
2023-05-02T19:33:49.855Z,41.21
2023-05-02T19:36:18.526Z,41.10
2023-05-02T19:38:48.740Z,41.08
2023-05-02T19:41:17.530Z,41.37
2023-05-02T19:43:45.691Z,41.60
2023-05-02T19:46:15.181Z,41.36
2023-05-02T19:48:44.787Z,41.29
2023-05-02T19:51:12.673Z,41.18
2023-05-02T19:53:40.475Z,41.16
2023-05-02T19:56:08.906Z,41.31
2023-05-02T19:58:36.699Z,41.36
2023-05-02T20:01:04.753Z,41.29
2023-05-02T20:03:34.891Z,41.83
2023-05-02T20:06:04.591Z,41.82
2023-05-02T20:08:32.397Z,41.82
2023-05-02T20:11:00.715Z,41.50
2023-05-02T20:13:28.617Z,41.92
2023-05-02T20:15:56.393Z,42.26
2023-05-02T20:18:24.746Z,42.62
2023-05-02T20:20:52.555Z,42.77
2023-05-02T20:23:21.703Z,42.32
2023-05-02T20:25:49.694Z,42.41
2023-05-02T20:28:17.505Z,42.90
2023-05-02T20:30:45.345Z,42.55
2023-05-02T20:33:16.631Z,42.74
2023-05-02T20:35:45.115Z,42.62
2023-05-02T20:38:12.958Z,43.24
2023-05-02T20:40:42.841Z,42.70
2023-05-02T20:43:11.777Z,43.06
2023-05-02T20:45:40.096Z,43.36
2023-05-02T20:48:08.228Z,43.61
2023-05-02T20:50:36.223Z,43.82
2023-05-02T20:53:04.508Z,43.58
2023-05-02T20:55:32.472Z,44.13
2023-05-02T20:58:01.602Z,44.07
2023-05-02T21:00:29.357Z,43.92
2023-05-02T21:02:57.340Z,44.14
2023-05-02T21:05:25.490Z,44.45
2023-05-02T21:07:53.470Z,43.05
2023-05-02T21:10:22.649Z,42.62
2023-05-02T21:12:50.430Z,42.63
2023-05-02T21:15:19.715Z,42.52
2023-05-02T21:17:47.682Z,42.34
2023-05-02T21:20:15.485Z,42.07
2023-05-02T21:22:43.318Z,42.94
2023-05-02T21:25:12.232Z,42.13
2023-05-02T21:27:40.105Z,43.02
2023-05-02T21:30:09.178Z,42.65
2023-05-02T21:32:39.058Z,43.30
2023-05-02T21:35:07.683Z,43.48
2023-05-02T21:37:35.480Z,43.66
2023-05-02T21:40:04.625Z,43.98
2023-05-02T21:42:32.581Z,43.93
2023-05-02T21:45:00.378Z,43.45
2023-05-02T21:47:28.791Z,43.27
2023-05-02T21:49:58.167Z,43.33
2023-05-02T21:52:26.031Z,43.58
2023-05-02T21:54:54.541Z,43.04
2023-05-02T21:57:22.338Z,43.58
2023-05-02T21:59:50.146Z,42.93
2023-05-02T22:02:18.582Z,43.02
2023-05-02T22:04:48.173Z,42.81
2023-05-02T22:07:17.454Z,43.11
2023-05-02T22:09:45.419Z,42.60
2023-05-02T22:12:13.191Z,41.79
2023-05-02T22:14:45.043Z,42.46
2023-05-02T22:17:14.210Z,42.55
2023-05-02T22:19:41.946Z,42.82
2023-05-02T22:22:09.720Z,42.17
2023-05-02T22:24:39.347Z,42.94
2023-05-02T22:27:07.127Z,42.30
2023-05-02T22:29:34.906Z,42.55
2023-05-02T22:32:03.241Z,42.84
2023-05-02T22:34:31.167Z,42.57
2023-05-02T22:36:58.928Z,42.68
2023-05-02T22:39:28.433Z,42.53
2023-05-02T22:41:59.543Z,43.05
2023-05-02T22:44:27.368Z,43.43
2023-05-02T22:46:55.729Z,43.71
2023-05-02T22:49:23.472Z,43.56
2023-05-02T22:51:52.123Z,43.99
2023-05-02T22:54:21.832Z,43.98
2023-05-02T22:56:49.653Z,43.21
2023-05-02T22:59:18.838Z,43.56
2023-05-02T23:01:47.186Z,43.92
2023-05-02T23:04:15.040Z,44.05
2023-05-02T23:06:42.850Z,43.69
2023-05-02T23:09:12.057Z,43.15
2023-05-02T23:11:39.957Z,43.97
2023-05-02T23:14:07.730Z,44.10
2023-05-02T23:16:37.405Z,44.39
2023-05-02T23:19:05.006Z,43.41
2023-05-02T23:21:32.770Z,44.30
2023-05-02T23:24:00.821Z,44.55
2023-05-02T23:26:28.565Z,44.38
2023-05-02T23:28:56.329Z,44.22
2023-05-02T23:31:24.743Z,44.58
2023-05-02T23:33:54.149Z,44.49
2023-05-02T23:36:22.367Z,44.43
2023-05-02T23:38:52.090Z,44.24
2023-05-02T23:41:19.665Z,43.61
2023-05-02T23:43:47.445Z,44.42
2023-05-02T23:46:15.618Z,44.63
2023-05-02T23:48:43.410Z,44.58
2023-05-02T23:51:12.896Z,44.58
2023-05-02T23:53:41.228Z,44.53
2023-05-02T23:56:09.752Z,45.03
2023-05-02T23:58:37.504Z,44.40
